Latest Weather Observations for Tamworth Airport

IDN60801

Issued at 8:02 pm EST Monday 26 June 2017 (issued every 30 minutes, with the page automatically refreshed every 10 minutes)

About weather observations | Map of weather stations | Latest weather observations for NSW | Other Formats
Station Details ID: 055325 Name: TAMWORTH AIRPORT AWS Lat: -31.07 Lon: 150.84 Height: 394.9 m
Data from the previous 72 hours. | See also: Recent months at Tamworth Airport
Date/Time
EST
Temp
°C
App
Temp
°C
Dew
Point
°C
Rel
Hum
%
Delta-T
°C
Wind Press
QNH
hPa
Press
MSL
hPa
Rain since
9am
mm
Dir  Spd
km/h
Gust
km/h
Spd
kts
Gust
kts
26/08:00pm 6.7 4.2 3.5 80 1.4 WNW 6 7 3 4 1023.7 1023.9 0.0
26/07:30pm 8.6 5.3 4.8 77 1.7 SSE 11 17 6 9 1023.2 1023.5 0.0
26/07:00pm 10.4 8.0 5.4 71 2.3 E 7 7 4 4 1023.1 1023.4 0.0
26/06:30pm 9.7 7.2 4.9 72 2.2 ESE 7 9 4 5 1022.8 1023.0 0.0
26/06:00pm 12.6 10.6 6.2 65 3.1 SW 6 7 3 4 1022.5 1022.7 0.0
26/05:30pm 12.1 9.7 5.3 63 3.2 W 7 9 4 5 1022.1 1022.3 0.0
26/05:00pm 13.7 10.4 4.8 55 4.2 W 11 13 6 7 1021.9 1022.1 0.0
26/04:30pm 16.4 13.2 5.1 47 5.5 W 11 15 6 8 1021.8 1022.0 0.0
26/04:00pm 17.8 14.1 4.4 41 6.5 W 13 19 7 10 1021.6 1021.8 0.0
26/03:30pm 18.6 16.7 7.4 48 5.8 W 7 13 4 7 1021.5 1021.7 0.0
26/03:00pm 17.5 15.3 6.4 48 5.6 W 7 11 4 6 1021.5 1021.7 0.0
26/02:30pm 18.5 15.7 7.0 47 5.9 NW 11 17 6 9 1021.4 1021.6 0.0
26/02:00pm 17.9 16.1 7.3 50 5.4 W 6 13 3 7 1021.5 1021.7 0.0
26/01:30pm 17.9 15.9 7.3 50 5.4 NNE 7 15 4 8 1021.6 1021.8 0.0
26/01:00pm 17.4 14.7 7.5 52 5.1 WSW 11 17 6 9 1021.7 1021.9 0.0
26/12:30pm 16.6 14.2 7.0 53 4.9 SW 9 13 5 7 1022.0 1022.2 0.0
26/12:00pm 16.6 15.0 8.1 57 4.4 NW 6 11 3 6 1022.3 1022.5 0.0
26/11:30am 15.7 13.7 7.2 57 4.3 NE 7 11 4 6 1022.6 1022.8 0.0
26/11:00am 14.9 14.0 7.7 62 3.6 E 2 9 1 5 1022.9 1023.1 0.0
26/10:30am 13.5 11.9 8.1 70 2.7 ESE 6 9 3 5 1023.1 1023.4 0.0
26/10:00am 12.0 9.9 8.3 78 1.9 SE 9 11 5 6 1023.2 1023.5 0.0
26/09:30am 10.2 8.2 7.1 81 1.5 ESE 7 11 4 6 1023.1 1023.4 0.0
26/09:00am 8.9 6.7 6.3 84 1.2 ESE 7 9 4 5 1023.0 1023.3 2.0
26/08:30am 7.9 5.4 6.4 90 0.7 SE 9 13 5 7 1022.6 1022.8 2.0
26/08:00am 6.4 4.0 5.2 92 0.5 SSE 7 11 4 6 1022.3 1022.5 2.0
26/07:45am 5.5 2.9 4.3 92 0.5 SE 7 9 4 5 1022.0 1022.2 2.0
26/07:30am 3.8 0.9 2.5 91 0.5 ESE 7 7 4 4 1021.9 1022.1 2.0
26/07:00am 4.0 2.4 2.7 91 0.5 CALM 0 0 0 0 1021.7 1021.9 2.0
26/06:30am 4.1 2.6 2.8 91 0.5 CALM 0 0 0 0 1021.3 1021.5 1.8
26/06:00am 3.5 1.9 2.2 91 0.5 CALM 0 0 0 0 1021.1 1021.3 1.8
26/05:30am 3.3 1.6 1.8 90 0.6 CALM 0 0 0 0 1020.5 1020.7 1.8
26/05:00am 3.6 1.9 2.1 90 0.6 CALM 0 6 0 3 1020.3 1020.5 1.8
26/04:50am 4.0 1.1 2.7 91 0.5 SSE 7 11 4 6 1020.4 1020.6 1.8
26/04:36am 4.3 1.1 3.0 91 0.5 SE 9 11 5 6 1020.2 1020.4 1.8
26/04:30am 4.4 1.6 3.1 91 0.5 SE 7 11 4 6 1020.3 1020.5 1.8
26/04:00am 4.0 1.7 2.5 90 0.6 S 4 7 2 4 1020.3 1020.5 1.8
26/03:30am 4.8 1.7 3.5 91 0.6 SE 9 11 5 6 1020.2 1020.4 1.8
26/03:23am 4.7 1.9 3.4 91 0.6 ESE 7 9 4 5 1020.2 1020.4 1.8
26/03:00am 5.1 2.6 3.8 91 0.6 SSE 6 9 3 5 1020.2 1020.4 1.8
26/02:44am 4.5 1.9 3.2 91 0.5 SE 6 7 3 4 1020.1 1020.3 1.8
26/02:30am 5.6 3.0 4.2 91 0.6 S 7 9 4 5 1020.0 1020.2 1.8
26/02:00am 5.1 2.4 3.6 90 0.6 ESE 7 9 4 5 1020.1 1020.3 1.8
26/01:58am 5.1 2.0 3.6 90 0.6 ESE 9 9 5 5 1020.1 1020.3 1.8
26/01:55am 5.6 3.0 4.1 90 0.7 ESE 7 9 4 5 1020.0 1020.2 1.8
26/01:30am 4.8 2.9 3.1 89 0.7 SSE 2 9 1 5 1020.1 1020.3 1.8
26/01:21am 5.3 2.8 3.8 90 0.6 SSE 6 7 3 4 1020.1 1020.3 1.8
26/01:20am 5.3 2.8 3.8 90 0.6 SSE 6 7 3 4 1020.1 1020.3 1.8
26/01:01am 5.4 2.9 3.7 89 0.7 SSE 6 7 3 4 1020.0 1020.2 1.8
26/01:00am 5.3 2.8 3.6 89 0.7 SSE 6 7 3 4 1020.0 1020.2 1.8
26/12:30am 6.3 3.0 4.8 90 0.7 SSE 11 13 6 7 1020.1 1020.3 1.8
26/12:09am 5.6 2.6 3.9 89 0.7 SW 9 11 5 6 1020.3 1020.5 1.8
26/12:00am 5.4 2.9 3.6 88 0.8 SW 6 11 3 6 1020.4 1020.6 1.8
 
Date/Time
EST
Temp
°C
App
Temp
°C
Dew
Point
°C
Rel
Hum
%
Delta-T
°C
Wind Press
QNH
hPa
Press
MSL
hPa
Rain since
9am
mm
Dir  Spd
km/h
Gust
km/h
Spd
kts
Gust
kts
25/11:49pm 5.7 4.3 3.7 87 0.9 CALM 0 6 0 3 1020.5 1020.7 1.8
25/11:30pm 7.2 4.8 5.3 88 0.9 E 7 9 4 5 1020.4 1020.6 1.8
25/11:00pm 7.5 4.8 5.8 89 0.8 ESE 9 13 5 7 1020.8 1020.9 1.8
25/10:30pm 7.8 4.8 6.1 89 0.8 S 11 13 6 7 1020.6 1020.8 1.8
25/10:00pm 7.0 4.7 4.8 86 1.0 SSW 6 11 3 6 1020.4 1020.6 1.8
25/09:30pm 7.5 5.2 5.5 87 0.9 S 7 15 4 8 1020.3 1020.5 1.4
25/09:00pm 7.7 5.5 5.3 85 1.1 SSW 6 9 3 5 1019.9 1020.1 1.4
25/08:30pm 9.6 8.9 7.0 84 1.3 CALM 0 0 0 0 1020.1 1020.3 1.4
25/08:00pm 9.6 8.9 7.0 84 1.2 CALM 0 6 0 3 1019.9 1020.1 1.4
25/07:30pm 9.9 7.2 7.2 83 1.3 E 11 13 6 7 1020.0 1020.2 1.4
25/07:00pm 11.6 10.5 7.1 74 2.2 WSW 2 7 1 4 1019.7 1019.9 1.4
25/06:42pm 11.5 5.6 7.4 76 2.0 SW 28 39 15 21 1020.0 1020.2 1.2
25/06:36pm 12.7 7.8 7.0 68 2.8 SW 22 39 12 21 1019.8 1020.0 0.0
25/06:30pm 11.8 9.0 7.1 73 2.3 SSW 11 20 6 11 1019.6 1019.8 0.0
25/06:00pm 13.0 10.5 8.3 73 2.4 S 11 15 6 8 1019.2 1019.4 0.0
25/05:30pm 13.2 12.7 7.9 70 2.7 CALM 0 0 0 0 1018.9 1019.1 0.0
25/05:00pm 14.0 12.1 7.5 65 3.3 N 7 9 4 5 1018.6 1018.7 0.0
25/04:30pm 15.9 14.7 8.2 60 4.0 N 4 9 2 5 1018.5 1018.6 0.0
25/04:00pm 16.2 14.0 7.9 58 4.3 NW 9 13 5 7 1018.5 1018.6 0.0
25/03:30pm 17.6 13.3 7.1 50 5.4 NW 19 24 10 13 1018.2 1018.3 0.0
25/03:00pm 16.3 13.4 6.7 53 4.8 NW 11 17 6 9 1018.3 1018.4 0.0
25/02:30pm 16.2 13.3 6.6 53 4.8 NNW 11 17 6 9 1018.3 1018.4 0.0
25/02:00pm 16.0 12.9 7.2 56 4.4 NNW 13 17 7 9 1018.5 1018.6 0.0
25/01:30pm 16.4 13.5 8.1 58 4.3 NNW 13 17 7 9 1018.7 1018.9 0.0
25/01:00pm 16.0 13.9 8.2 60 4.0 NW 9 15 5 8 1019.0 1019.2 0.0
25/12:30pm 15.4 13.2 7.7 60 3.9 NNE 9 13 5 7 1019.3 1019.5 0.0
25/12:00pm 15.0 14.4 9.1 68 3.1 NNE 2 6 1 3 1019.9 1020.1 0.0
25/11:30am 13.4 12.6 8.0 70 2.7 SE 2 7 1 4 1020.1 1020.3 0.0
25/11:00am 12.8 11.9 7.7 71 2.5 ESE 2 6 1 3 1020.6 1020.8 0.0
25/10:30am 11.0 9.7 7.5 79 1.7 WSW 4 6 2 3 1021.3 1021.5 0.0
25/10:00am 10.2 7.9 7.6 84 1.3 SW 9 13 5 7 1021.4 1021.6 0.0
25/09:30am 9.6 7.2 7.2 85 1.2 W 9 13 5 7 1021.4 1021.6 0.0
25/09:00am 9.2 6.8 6.8 85 1.1 NNW 9 11 5 6 1021.3 1021.5 1.2
25/08:30am 8.1 6.1 6.2 88 0.9 N 6 9 3 5 1021.0 1021.2 1.2
25/08:00am 7.3 5.9 5.3 87 0.9 NNE 2 7 1 4 1021.2 1021.4 1.2
25/07:30am 7.1 4.7 5.1 87 0.9 N 7 9 4 5 1021.0 1021.2 0.8
25/07:00am 7.1 5.6 5.1 87 0.9 E 2 7 1 4 1020.9 1021.1 0.6
25/06:30am 6.9 4.4 4.9 87 0.9 S 7 11 4 6 1020.5 1020.7 0.4
25/06:00am 6.9 4.6 4.7 86 1.0 ESE 6 7 3 4 1019.7 1019.9 0.2
25/05:30am 6.6 3.6 4.3 85 1.0 SE 9 13 5 7 1019.7 1019.9 0.2
25/05:00am 6.8 3.9 4.5 85 1.0 E 9 13 5 7 1019.2 1019.4 0.2
25/04:30am 6.7 4.7 4.2 84 1.1 ESE 4 11 2 6 1019.5 1019.7 0.0
25/04:00am 6.7 5.0 4.2 84 1.1 E 2 6 1 3 1019.1 1019.3 0.0
25/03:30am 6.6 4.5 4.1 84 1.1 S 4 7 2 4 1019.3 1019.5 0.0
25/03:00am 6.7 4.2 3.9 82 1.2 SE 6 9 3 5 1019.0 1019.2 0.0
25/02:30am 5.9 3.3 3.2 83 1.2 SE 6 7 3 4 1019.0 1019.2 0.0
25/02:00am 6.2 3.7 3.5 83 1.2 SE 6 7 3 4 1019.1 1019.3 0.0
25/01:30am 5.9 2.8 3.4 84 1.1 SE 9 9 5 5 1019.0 1019.2 0.0
25/01:00am 6.0 3.4 4.2 88 0.8 SE 7 11 4 6 1019.0 1019.2 0.0
25/12:30am 4.1 1.6 1.8 85 0.9 SSW 4 7 2 4 1019.3 1019.5 0.0
25/12:00am 4.2 0.7 1.4 82 1.1 SE 9 13 5 7 1019.3 1019.5 0.0
 
Date/Time
EST
Temp
°C
App
Temp
°C
Dew
Point
°C
Rel
Hum
%
Delta-T
°C
Wind Press
QNH
hPa
Press
MSL
hPa
Rain since
9am
mm
Dir  Spd
km/h
Gust
km/h
Spd
kts
Gust
kts
24/11:30pm 4.8 1.5 2.5 85 1.0 ESE 9 13 5 7 1019.5 1019.7 0.0
24/11:00pm 3.8 0.7 1.2 83 1.0 SSW 7 9 4 5 1019.7 1019.9 0.0
24/10:30pm 5.2 1.9 2.2 81 1.2 ESE 9 11 5 6 1019.4 1019.6 0.0
24/10:00pm 6.0 4.5 3.2 82 1.2 CALM 0 0 0 0 1019.4 1019.6 0.0
24/09:30pm 5.9 4.3 2.4 78 1.5 CALM 0 0 0 0 1019.5 1019.7 0.0
24/09:00pm 7.3 5.9 3.5 77 1.7 CALM 0 0 0 0 1019.3 1019.5 0.0
24/08:30pm 9.8 8.5 4.2 68 2.5 CALM 0 0 0 0 1019.2 1019.4 0.0
24/08:00pm 9.6 7.1 3.8 67 2.6 NW 6 6 3 3 1019.0 1019.2 0.0
24/07:30pm 10.4 9.1 4.1 65 2.9 CALM 0 0 0 0 1018.9 1019.1 0.0
24/07:00pm 10.6 8.9 4.1 64 2.9 W 2 6 1 3 1018.5 1018.6 0.0
24/06:30pm 11.0 8.5 3.8 61 3.3 WNW 6 9 3 5 1018.5 1018.6 0.0
24/06:00pm 10.6 8.0 3.4 61 3.2 WNW 6 9 3 5 1018.2 1018.3 0.0
24/05:30pm 12.7 9.7 3.9 55 4.1 NW 9 11 5 6 1017.9 1018.1 0.0
24/05:00pm 15.2 12.6 3.0 44 5.6 NW 6 9 3 5 1017.8 1018.0 0.0
24/04:30pm 17.7 15.0 2.8 37 7.0 W 6 7 3 4 1017.6 1017.8 0.0
24/04:00pm 17.9 14.6 2.6 36 7.1 W 9 15 5 8 1017.5 1017.7 0.0
24/03:30pm 18.5 14.8 2.4 34 7.5 W 11 19 6 10 1017.5 1017.7 0.0
24/03:00pm 18.5 15.3 2.8 35 7.4 WSW 9 15 5 8 1017.7 1017.9 0.0
24/02:30pm 18.2 15.0 3.3 37 7.1 WSW 9 17 5 9 1017.6 1017.8 0.0
24/02:00pm 18.7 14.2 2.1 33 7.7 WSW 15 22 8 12 1017.7 1017.9 0.0
24/01:30pm 18.3 13.4 1.8 33 7.6 W 17 22 9 12 1017.9 1018.1 0.0
24/01:00pm 17.8 14.6 3.3 38 6.9 NW 9 17 5 9 1018.0 1018.2 0.0
24/12:30pm 17.2 13.8 3.8 41 6.4 W 11 20 6 11 1018.4 1018.5 0.0
24/12:00pm 17.2 14.3 4.5 43 6.1 NW 9 17 5 9 1019.0 1019.2 0.0
24/11:30am 16.2 13.3 4.6 46 5.6 NNW 9 17 5 9 1019.4 1019.6 0.0
24/11:00am 15.5 12.9 6.0 53 4.7 N 9 13 5 7 1019.8 1020.0 0.0
24/10:30am 14.0 11.8 5.4 56 4.1 NNW 6 13 3 7 1020.3 1020.5 0.0
24/10:00am 12.8 11.8 5.5 61 3.5 CALM 0 0 0 0 1020.6 1020.8 0.0
24/09:30am 11.4 9.3 5.7 68 2.7 E 6 9 3 5 1020.5 1020.7 0.0
24/09:00am 8.5 6.1 5.3 80 1.5 SE 7 9 4 5 1020.4 1020.6 0.0
24/08:30am 6.4 3.8 4.2 86 1.0 ESE 7 9 4 5 1020.1 1020.3 0.0
24/08:00am 4.7 2.9 3.4 91 0.5 SSE 2 7 1 4 1019.7 1019.9 0.0
24/07:44am 4.2 1.0 2.9 91 0.5 SW 9 11 5 6 1019.9 1020.1 0.0
24/07:30am 3.1 -0.3 1.8 91 0.5 W 9 9 5 5 1019.7 1019.9 0.0
24/07:27am 2.9 -0.5 1.6 91 0.5 WSW 9 9 5 5 1019.6 1019.8 0.0
24/07:23am 2.9 0.0 1.6 91 0.5 WSW 6 9 3 5 1019.8 1020.0 0.0
24/07:00am 2.5 0.7 1.0 90 0.6 CALM 0 0 0 0 1019.1 1019.3 0.0
24/06:55am 2.6 0.8 1.1 90 0.6 CALM 0 11 0 6 1019.1 1019.3 0.0
24/06:30am 2.6 -0.5 1.3 91 0.5 ESE 7 11 4 6 1018.7 1018.9 0.0
24/06:00am 2.1 0.2 0.6 90 0.6 CALM 0 0 0 0 1018.6 1018.7 0.0
24/05:30am 2.9 1.1 1.4 90 0.6 CALM 0 0 0 0 1018.2 1018.3 0.0
24/05:01am 2.1 0.1 0.2 87 0.7 CALM 0 0 0 0 1018.4 1018.5 0.0
24/05:00am 2.1 0.1 0.2 87 0.7 CALM 0 0 0 0 1018.3 1018.4 0.0
24/04:30am 2.7 0.9 1.1 89 0.6 CALM 0 0 0 0 1017.8 1018.0 0.0
24/04:00am 3.1 1.0 1.5 89 0.6 SE 2 6 1 3 1017.8 1018.0 0.0
24/03:30am 3.0 0.1 1.4 89 0.6 ESE 6 9 3 5 1017.8 1018.0 0.0
24/03:16am 3.2 0.3 1.6 89 0.6 ESE 6 9 3 5 1017.9 1018.1 0.0
24/03:00am 3.2 1.5 1.6 89 0.6 CALM 0 0 0 0 1017.9 1018.1 0.0
24/02:54am 3.4 1.7 1.8 89 0.6 CALM 0 0 0 0 1017.8 1018.0 0.0
24/02:30am 3.5 1.4 1.5 87 0.8 NE 2 7 1 4 1018.0 1018.2 0.0
24/02:00am 4.5 1.6 2.5 87 0.8 SE 7 11 4 6 1018.0 1018.2 0.0
24/01:30am 5.5 3.4 3.7 88 0.8 ESE 4 7 2 4 1018.2 1018.3 0.0
24/01:00am 4.5 2.9 2.7 88 0.7 CALM 0 0 0 0 1018.3 1018.4 0.0
24/12:30am 4.0 2.2 1.5 84 1.0 CALM 0 0 0 0 1018.4 1018.5 0.0
24/12:00am 5.9 3.2 3.9 87 0.9 E 7 9 4 5 1018.5 1018.6 0.0
 
Date/Time
EST
Temp
°C
App
Temp
°C
Dew
Point
°C
Rel
Hum
%
Delta-T
°C
Wind Press
QNH
hPa
Press
MSL
hPa
Rain since
9am
mm
Dir  Spd
km/h
Gust
km/h
Spd
kts
Gust
kts
23/11:30pm 5.7 2.9 3.0 83 1.1 E 7 9 4 5 1018.8 1019.0 0.0
23/11:00pm 7.3 5.9 3.5 77 1.7 CALM 0 2 0 1 1019.4 1019.6 0.0
23/10:30pm 6.9 5.5 3.3 78 1.6 CALM 0 0 0 0 1019.0 1019.2 0.0
23/10:00pm 7.5 6.1 3.7 77 1.7 CALM 0 4 0 2 1018.9 1019.1 0.0
23/09:30pm 7.6 6.2 3.6 76 1.8 CALM 0 0 0 0 1018.5 1018.6 0.0
23/09:00pm 9.0 7.9 5.0 76 1.8 CALM 0 4 0 2 1018.7 1018.9 0.0
23/08:30pm 9.0 6.6 4.4 73 2.1 NNW 6 7 3 4 1018.9 1019.1 0.0

Other Formats:

Comma delimited format used in spreadsheet applications
http://www.bom.gov.au/fwo/IDN60801/IDN60801.95762.axf

JavaScript Object Notation format (JSON) in row-major order
http://www.bom.gov.au/fwo/IDN60801/IDN60801.95762.json